Time;durP1;ratioP1;P1;durP2;ratioP2;P2;SDS_P1;SDS_P2;PMS_P1;PMS_P2;Temp;Humidity;BMP_temperature;BMP_pressure;BME280_temperature;BME280_humidity;BME280_pressure;Samples;Min_cycle;Max_cycle;Signal;HPM_P1;HPM_P2
2022/05/09 00:01:06;;;;;;;9.38;7.00;;;;;;;;;;1695133;83;21519;-70
2022/05/09 00:03:34;;;;;;;9.48;6.22;;;;;;;;;;1711736;82;21100;-70
2022/05/09 00:06:00;;;;;;;10.53;5.87;;;;;;;;;;1699384;82;21000;-70
2022/05/09 00:08:28;;;;;;;10.50;7.05;;;;;;;;;;1712015;84;21064;-70
2022/05/09 00:10:56;;;;;;;11.25;7.03;;;;;;;;;;1746622;82;21100;-70
2022/05/09 00:13:22;;;;;;;12.63;6.22;;;;;;;;;;1746199;82;21556;-70
2022/05/09 00:15:50;;;;;;;9.35;6.03;;;;;;;;;;1744547;82;21068;-71
2022/05/09 00:18:19;;;;;;;9.68;6.15;;;;;;;;;;1747000;82;21024;-72
2022/05/09 00:20:45;;;;;;;8.85;5.80;;;;;;;;;;1719080;82;21013;-72
2022/05/09 00:23:11;;;;;;;9.63;5.58;;;;;;;;;;1717294;82;21099;-72
2022/05/09 00:25:37;;;;;;;8.80;5.92;;;;;;;;;;1739698;82;21571;-71
2022/05/09 00:28:04;;;;;;;8.35;5.28;;;;;;;;;;1712960;82;21064;-72
2022/05/09 00:30:32;;;;;;;9.18;5.20;;;;;;;;;;1724511;82;21173;-72
2022/05/09 00:32:59;;;;;;;9.80;5.70;;;;;;;;;;1744651;82;21473;-71
2022/05/09 00:35:25;;;;;;;9.28;6.17;;;;;;;;;;1718333;82;21020;-72
2022/05/09 00:37:51;;;;;;;11.18;5.60;;;;;;;;;;1733475;82;21032;-71
2022/05/09 00:40:18;;;;;;;10.25;5.10;;;;;;;;;;1752402;82;21527;-72
2022/05/09 00:42:46;;;;;;;8.28;5.95;;;;;;;;;;1752649;82;21032;-72
2022/05/09 00:45:13;;;;;;;8.18;5.45;;;;;;;;;;1750457;82;21040;-72
2022/05/09 00:47:41;;;;;;;8.28;5.22;;;;;;;;;;1734281;82;21028;-70
2022/05/09 00:50:10;;;;;;;8.50;5.17;;;;;;;;;;1723350;82;21000;-70
2022/05/09 00:52:40;;;;;;;6.55;4.78;;;;;;;;;;1720502;82;21072;-70
2022/05/09 00:55:11;;;;;;;7.30;4.47;;;;;;;;;;1721108;82;21032;-70
2022/05/09 00:57:39;;;;;;;7.95;4.78;;;;;;;;;;1720701;82;21262;-70
2022/05/09 01:00:07;;;;;;;8.70;5.40;;;;;;;;;;1723020;82;21525;-70
2022/05/09 01:05:18;;;;;;;10.32;5.67;;;;;;;;;;1713139;82;21039;-70
2022/05/09 01:07:44;;;;;;;15.98;8.73;;;;;;;;;;1720672;83;21087;-70
2022/05/09 01:10:11;;;;;;;17.95;9.23;;;;;;;;;;1720057;83;21035;-71
2022/05/09 01:12:38;;;;;;;17.67;8.30;;;;;;;;;;1720611;83;21000;-70
2022/05/09 01:15:06;;;;;;;19.92;8.55;;;;;;;;;;1720027;83;21055;-70
2022/05/09 01:17:32;;;;;;;19.67;8.53;;;;;;;;;;1721305;83;21011;-70
2022/05/09 01:19:59;;;;;;;17.30;8.50;;;;;;;;;;1721694;83;21102;-70
2022/05/09 01:22:27;;;;;;;17.57;8.38;;;;;;;;;;1720507;83;21004;-70
2022/05/09 01:24:53;;;;;;;13.72;6.80;;;;;;;;;;1720182;83;21074;-71
2022/05/09 01:27:19;;;;;;;13.60;6.95;;;;;;;;;;1720121;83;21012;-71
2022/05/09 01:29:53;;;;;;;12.82;6.03;;;;;;;;;;1720575;83;21015;-70
2022/05/09 01:32:24;;;;;;;10.88;5.53;;;;;;;;;;1721856;83;21023;-70
2022/05/09 01:34:52;;;;;;;8.30;4.72;;;;;;;;;;1721017;83;21074;-69
2022/05/09 01:37:20;;;;;;;8.90;5.53;;;;;;;;;;1721626;83;20980;-72
2022/05/09 01:39:46;;;;;;;7.97;4.55;;;;;;;;;;1721674;83;21015;-71
2022/05/09 01:42:12;;;;;;;7.83;4.33;;;;;;;;;;1721660;83;21023;-71
2022/05/09 01:44:39;;;;;;;8.35;4.15;;;;;;;;;;1721663;83;21000;-71
2022/05/09 01:49:50;;;;;;;8.10;4.55;;;;;;;;;;1720722;83;21487;-71
2022/05/09 01:52:15;;;;;;;7.12;4.67;;;;;;;;;;1721827;83;20996;-71
2022/05/09 01:54:43;;;;;;;7.92;4.25;;;;;;;;;;1721506;83;21067;-71
2022/05/09 01:57:10;;;;;;;6.33;3.98;;;;;;;;;;1720575;83;21569;-71
2022/05/09 01:59:38;;;;;;;7.30;4.60;;;;;;;;;;1720098;83;20977;-71
2022/05/09 02:02:09;;;;;;;5.92;4.10;;;;;;;;;;1692722;85;21574;-71
2022/05/09 02:04:38;;;;;;;5.78;3.70;;;;;;;;;;1721136;82;21098;-71
2022/05/09 02:07:04;;;;;;;6.58;3.45;;;;;;;;;;1760881;81;20996;-71
2022/05/09 02:09:31;;;;;;;5.72;3.52;;;;;;;;;;1762156;81;21012;-71
2022/05/09 02:11:57;;;;;;;7.50;3.85;;;;;;;;;;1761394;81;21024;-70
2022/05/09 02:14:23;;;;;;;7.00;4.20;;;;;;;;;;1760835;81;20989;-70
2022/05/09 02:16:49;;;;;;;8.28;3.95;;;;;;;;;;1760782;81;20997;-70
2022/05/09 02:19:15;;;;;;;5.25;3.17;;;;;;;;;;1761300;81;20995;-70
2022/05/09 02:21:42;;;;;;;7.62;4.17;;;;;;;;;;1761144;81;21040;-70
2022/05/09 02:24:08;;;;;;;6.20;3.60;;;;;;;;;;1760694;81;21016;-70
2022/05/09 02:26:36;;;;;;;5.08;3.60;;;;;;;;;;1760876;81;21072;-70
2022/05/09 02:29:02;;;;;;;6.25;4.12;;;;;;;;;;1762092;81;21075;-70
2022/05/09 02:31:30;;;;;;;5.67;3.75;;;;;;;;;;1761996;81;21059;-71
2022/05/09 02:33:56;;;;;;;7.80;4.25;;;;;;;;;;1762204;81;21001;-70
2022/05/09 02:36:22;;;;;;;6.67;4.05;;;;;;;;;;1762428;81;21020;-71
2022/05/09 02:38:48;;;;;;;8.38;3.72;;;;;;;;;;1762315;81;20984;-71
2022/05/09 02:41:14;;;;;;;6.67;3.55;;;;;;;;;;1761324;81;21036;-69
2022/05/09 02:43:40;;;;;;;4.97;3.75;;;;;;;;;;1761073;81;21012;-70
2022/05/09 02:46:08;;;;;;;6.87;4.05;;;;;;;;;;1762031;81;21075;-70
2022/05/09 02:48:36;;;;;;;7.78;4.00;;;;;;;;;;1760687;81;21570;-71
2022/05/09 02:51:03;;;;;;;7.33;4.25;;;;;;;;;;1760814;81;20980;-70
2022/05/09 02:53:29;;;;;;;9.05;4.87;;;;;;;;;;1763040;80;21024;-71
2022/05/09 02:55:55;;;;;;;9.08;4.45;;;;;;;;;;1762378;81;21510;-70
2022/05/09 02:58:22;;;;;;;8.05;4.15;;;;;;;;;;1762428;81;21561;-70
2022/05/09 03:00:50;;;;;;;7.33;4.50;;;;;;;;;;1761913;81;21143;-70
2022/05/09 03:06:01;;;;;;;8.58;4.55;;;;;;;;;;1760809;81;21020;-70
2022/05/09 03:08:26;;;;;;;6.12;3.95;;;;;;;;;;1760862;81;20966;-70
2022/05/09 03:10:53;;;;;;;8.13;4.67;;;;;;;;;;1761614;81;21554;-70
2022/05/09 03:13:19;;;;;;;8.95;4.60;;;;;;;;;;1762232;81;21341;-70
2022/05/09 03:15:47;;;;;;;7.42;4.60;;;;;;;;;;1760716;81;21111;-70
2022/05/09 03:18:14;;;;;;;7.67;5.00;;;;;;;;;;1761168;81;20961;-70
2022/05/09 03:20:41;;;;;;;8.13;4.55;;;;;;;;;;1762531;81;21060;-70
2022/05/09 03:23:09;;;;;;;7.00;4.28;;;;;;;;;;1762644;81;21036;-70
2022/05/09 03:25:36;;;;;;;9.03;4.80;;;;;;;;;;1763393;80;21007;-70
2022/05/09 03:28:06;;;;;;;9.15;4.47;;;;;;;;;;1762847;81;21020;-70
2022/05/09 03:30:32;;;;;;;9.65;5.08;;;;;;;;;;1761998;81;21067;-70
2022/05/09 03:32:58;;;;;;;8.75;4.30;;;;;;;;;;1755424;81;20999;-70
2022/05/09 03:35:24;;;;;;;8.30;4.62;;;;;;;;;;1754932;81;21507;-70
2022/05/09 03:37:52;;;;;;;8.15;4.65;;;;;;;;;;1762335;81;21019;-70
2022/05/09 03:40:20;;;;;;;7.45;4.78;;;;;;;;;;1762485;81;21064;-70
2022/05/09 03:42:47;;;;;;;11.22;4.95;;;;;;;;;;1762377;81;21031;-70
2022/05/09 03:45:13;;;;;;;8.45;4.72;;;;;;;;;;1762571;81;20988;-70
2022/05/09 03:47:41;;;;;;;11.48;5.40;;;;;;;;;;1760595;81;21095;-70
2022/05/09 03:52:49;;;;;;;10.00;4.90;;;;;;;;;;1801608;79;23626;-67
2022/05/09 03:55:15;;;;;;;10.80;5.80;;;;;;;;;;1761769;81;21042;-67
2022/05/09 03:57:45;;;;;;;8.70;4.78;;;;;;;;;;1761694;81;21026;-67
2022/05/09 04:00:14;;;;;;;8.10;4.45;;;;;;;;;;1761660;81;21478;-67
2022/05/09 04:02:43;;;;;;;10.85;5.33;;;;;;;;;;1760468;81;21019;-67
2022/05/09 04:05:15;;;;;;;8.55;4.58;;;;;;;;;;1731531;82;21052;-68
2022/05/09 04:07:39;;;;;;;5.40;3.37;;;;;;;;;;1731180;82;21526;-67
2022/05/09 04:10:05;;;;;;;6.67;3.65;;;;;;;;;;1731518;83;21002;-67
2022/05/09 04:12:32;;;;;;;4.75;3.20;;;;;;;;;;1731392;83;21046;-67
2022/05/09 04:17:42;;;;;;;6.17;3.55;;;;;;;;;;1755604;81;21067;-67
2022/05/09 04:20:09;;;;;;;5.97;3.27;;;;;;;;;;1746701;81;21011;-67
2022/05/09 04:22:35;;;;;;;3.87;3.02;;;;;;;;;;1746468;82;21028;-67
2022/05/09 04:25:01;;;;;;;4.72;3.30;;;;;;;;;;1746716;82;20992;-68
2022/05/09 04:27:29;;;;;;;4.47;3.02;;;;;;;;;;1746712;82;21008;-67
2022/05/09 04:29:55;;;;;;;4.20;2.90;;;;;;;;;;1747780;81;21008;-68
2022/05/09 04:32:21;;;;;;;3.42;2.50;;;;;;;;;;1750099;81;21027;-67
2022/05/09 04:34:48;;;;;;;4.72;2.67;;;;;;;;;;1746388;82;21055;-67
2022/05/09 04:37:14;;;;;;;3.25;2.72;;;;;;;;;;1734905;81;21027;-67
2022/05/09 04:39:41;;;;;;;5.00;2.72;;;;;;;;;;1745406;81;21035;-70
2022/05/09 04:42:09;;;;;;;4.42;2.90;;;;;;;;;;1745634;81;21549;-69
2022/05/09 04:44:35;;;;;;;5.40;3.10;;;;;;;;;;1730145;83;21539;-65
2022/05/09 04:47:01;;;;;;;5.55;2.60;;;;;;;;;;1728449;82;21558;-66
2022/05/09 04:49:27;;;;;;;4.65;3.85;;;;;;;;;;1725844;83;21060;-68
2022/05/09 04:51:53;;;;;;;4.08;3.17;;;;;;;;;;1728903;82;21009;-68
2022/05/09 04:54:19;;;;;;;5.65;2.77;;;;;;;;;;1727011;83;21476;-69
2022/05/09 04:56:45;;;;;;;4.75;2.80;;;;;;;;;;1726866;83;21072;-68
2022/05/09 04:59:11;;;;;;;5.28;3.15;;;;;;;;;;1726477;83;21096;-67
2022/05/09 05:01:38;;;;;;;3.67;2.75;;;;;;;;;;1725336;81;21126;-68
2022/05/09 05:04:06;;;;;;;3.55;3.22;;;;;;;;;;1732501;81;21047;-67
2022/05/09 05:06:32;;;;;;;5.62;3.10;;;;;;;;;;1738518;82;21071;-66
2022/05/09 05:08:58;;;;;;;5.03;3.10;;;;;;;;;;1727423;81;21601;-66
2022/05/09 05:11:24;;;;;;;3.95;3.05;;;;;;;;;;1724573;83;21080;-68
2022/05/09 05:13:50;;;;;;;3.60;3.20;;;;;;;;;;1722507;83;21314;-68
2022/05/09 05:16:17;;;;;;;4.28;3.10;;;;;;;;;;1719376;81;20989;-68
2022/05/09 05:18:44;;;;;;;4.33;3.05;;;;;;;;;;1726006;83;21125;-68
2022/05/09 05:21:11;;;;;;;5.72;3.08;;;;;;;;;;1726023;83;21553;-68
2022/05/09 05:23:38;;;;;;;4.30;3.10;;;;;;;;;;1724812;82;21024;-66
2022/05/09 05:26:04;;;;;;;4.60;3.15;;;;;;;;;;1724418;83;21025;-67
2022/05/09 05:28:32;;;;;;;5.00;3.50;;;;;;;;;;1724556;83;21652;-67
2022/05/09 05:31:12;;;;;;;4.47;3.17;;;;;;;;;;1724440;83;21588;-67
2022/05/09 05:33:38;;;;;;;3.52;2.80;;;;;;;;;;1724553;83;21117;-69
2022/05/09 05:36:05;;;;;;;3.75;2.52;;;;;;;;;;1724101;83;21035;-69
2022/05/09 05:38:33;;;;;;;4.15;2.80;;;;;;;;;;1725207;81;21000;-68
2022/05/09 05:40:59;;;;;;;4.45;2.80;;;;;;;;;;1741080;81;21067;-69
2022/05/09 05:43:25;;;;;;;3.00;2.50;;;;;;;;;;1738566;82;20972;-68
2022/05/09 05:45:55;;;;;;;3.20;2.60;;;;;;;;;;1738504;82;21063;-68
2022/05/09 05:48:24;;;;;;;4.00;2.72;;;;;;;;;;1738628;82;21586;-68
2022/05/09 05:50:52;;;;;;;4.45;2.80;;;;;;;;;;1739854;81;21063;-68
2022/05/09 05:53:19;;;;;;;4.35;3.30;;;;;;;;;;1744159;81;21079;-68
2022/05/09 05:55:45;;;;;;;7.10;3.22;;;;;;;;;;1696023;84;21084;-70
2022/05/09 05:58:11;;;;;;;4.22;3.27;;;;;;;;;;1667873;85;21076;-69
2022/05/09 06:00:37;;;;;;;4.05;2.80;;;;;;;;;;1671641;85;20973;-67
2022/05/09 06:03:03;;;;;;;6.47;3.20;;;;;;;;;;1688086;83;21090;-67
2022/05/09 06:05:30;;;;;;;3.98;2.75;;;;;;;;;;1689950;85;21080;-68
2022/05/09 06:07:56;;;;;;;3.87;2.92;;;;;;;;;;1692210;85;21041;-67
2022/05/09 06:10:22;;;;;;;4.75;3.25;;;;;;;;;;1674347;85;21593;-67
2022/05/09 06:12:48;;;;;;;4.22;2.60;;;;;;;;;;1677702;85;21054;-66
2022/05/09 06:15:34;;;;;;;3.98;3.00;;;;;;;;;;1673787;85;21105;-67
2022/05/09 06:18:01;;;;;;;5.62;2.85;;;;;;;;;;1681073;85;21026;-67
2022/05/09 06:20:27;;;;;;;4.28;2.45;;;;;;;;;;1692741;85;21496;-68
2022/05/09 06:22:58;;;;;;;3.40;2.87;;;;;;;;;;1688061;84;21002;-68
2022/05/09 06:25:25;;;;;;;3.90;2.47;;;;;;;;;;1686500;85;21571;-68
2022/05/09 06:27:52;;;;;;;5.22;2.47;;;;;;;;;;1676829;85;21107;-68
2022/05/09 06:30:19;;;;;;;4.10;2.17;;;;;;;;;;1677408;85;21047;-68
2022/05/09 06:32:45;;;;;;;3.20;2.20;;;;;;;;;;1688663;85;22243;-68
2022/05/09 06:35:12;;;;;;;3.00;2.40;;;;;;;;;;1680825;85;21084;-68
2022/05/09 06:37:38;;;;;;;2.87;2.20;;;;;;;;;;1693799;85;21029;-68
2022/05/09 06:40:05;;;;;;;3.72;2.42;;;;;;;;;;1693682;84;21053;-68
2022/05/09 06:42:31;;;;;;;4.10;2.60;;;;;;;;;;1693822;85;21101;-67
2022/05/09 06:44:57;;;;;;;3.83;2.40;;;;;;;;;;1682371;84;21013;-68
2022/05/09 06:47:23;;;;;;;4.15;2.50;;;;;;;;;;1683940;85;21017;-69
2022/05/09 06:49:49;;;;;;;4.08;2.35;;;;;;;;;;1684162;85;21560;-68
2022/05/09 06:52:15;;;;;;;2.15;1.90;;;;;;;;;;1670849;85;21079;-68
2022/05/09 06:54:41;;;;;;;3.08;2.27;;;;;;;;;;1662852;85;21081;-68
2022/05/09 06:57:07;;;;;;;2.47;2.08;;;;;;;;;;1664901;85;21031;-68
2022/05/09 06:59:33;;;;;;;2.98;2.27;;;;;;;;;;1679367;84;21529;-68
2022/05/09 07:02:00;;;;;;;3.17;2.00;;;;;;;;;;1666806;85;21006;-70
2022/05/09 07:04:26;;;;;;;3.47;2.10;;;;;;;;;;1686239;85;21107;-69
2022/05/09 07:06:53;;;;;;;2.45;2.08;;;;;;;;;;1667209;85;21170;-69
2022/05/09 07:09:19;;;;;;;5.22;2.37;;;;;;;;;;1688810;84;21096;-68
2022/05/09 07:11:45;;;;;;;3.47;2.00;;;;;;;;;;1687389;84;21068;-68
2022/05/09 07:14:11;;;;;;;2.75;2.10;;;;;;;;;;1687335;85;21069;-69
2022/05/09 07:16:39;;;;;;;4.35;2.42;;;;;;;;;;1689422;84;21563;-69
2022/05/09 07:19:04;;;;;;;2.77;2.30;;;;;;;;;;1692192;84;21090;-68
2022/05/09 07:21:32;;;;;;;3.95;2.30;;;;;;;;;;1686991;85;21069;-68
2022/05/09 07:23:59;;;;;;;3.52;2.22;;;;;;;;;;1687247;85;21057;-68
2022/05/09 07:26:26;;;;;;;2.65;2.17;;;;;;;;;;1686637;85;21039;-68
2022/05/09 07:28:52;;;;;;;2.90;1.77;;;;;;;;;;1691772;84;21033;-68
2022/05/09 07:31:18;;;;;;;3.15;2.20;;;;;;;;;;1702243;84;21577;-67
2022/05/09 07:33:44;;;;;;;2.95;2.30;;;;;;;;;;1686620;85;21083;-67
2022/05/09 07:36:10;;;;;;;4.28;2.20;;;;;;;;;;1723675;83;21042;-68
2022/05/09 07:38:36;;;;;;;3.75;2.10;;;;;;;;;;1723026;82;21627;-68
2022/05/09 07:41:02;;;;;;;2.50;1.90;;;;;;;;;;1722068;83;21097;-68
2022/05/09 07:43:29;;;;;;;4.03;2.08;;;;;;;;;;1735746;82;21055;-68
2022/05/09 07:45:56;;;;;;;2.80;1.90;;;;;;;;;;1733156;82;21023;-68
2022/05/09 07:48:23;;;;;;;2.70;1.95;;;;;;;;;;1741377;82;21085;-68
2022/05/09 07:50:50;;;;;;;3.70;1.98;;;;;;;;;;1686103;85;21004;-69
2022/05/09 07:53:18;;;;;;;3.05;2.00;;;;;;;;;;1715303;83;21053;-68
2022/05/09 07:55:47;;;;;;;3.83;1.90;;;;;;;;;;1712078;83;21092;-68
2022/05/09 07:58:14;;;;;;;3.87;2.10;;;;;;;;;;1712349;83;21068;-68
2022/05/09 08:00:41;;;;;;;3.47;2.12;;;;;;;;;;1712132;84;21073;-68
2022/05/09 08:03:09;;;;;;;3.83;2.52;;;;;;;;;;1717534;80;21052;-68
2022/05/09 08:05:36;;;;;;;4.78;2.25;;;;;;;;;;1748905;82;21079;-68
2022/05/09 08:08:02;;;;;;;4.12;2.10;;;;;;;;;;1748558;82;21281;-67
2022/05/09 08:10:29;;;;;;;2.47;1.85;;;;;;;;;;1721222;82;21024;-69
2022/05/09 08:12:58;;;;;;;2.60;1.85;;;;;;;;;;1734305;82;21488;-68
2022/05/09 08:15:24;;;;;;;4.08;2.27;;;;;;;;;;1713403;83;20990;-68
2022/05/09 08:17:51;;;;;;;4.87;1.98;;;;;;;;;;1715359;83;21033;-67
2022/05/09 08:20:18;;;;;;;2.60;1.90;;;;;;;;;;1711013;83;21034;-67
2022/05/09 08:22:45;;;;;;;2.67;1.95;;;;;;;;;;1734184;82;21527;-69
2022/05/09 08:25:13;;;;;;;3.05;1.80;;;;;;;;;;1750607;82;21020;-68
2022/05/09 08:27:39;;;;;;;2.87;1.80;;;;;;;;;;1730373;82;21016;-69
2022/05/09 08:30:06;;;;;;;3.12;2.08;;;;;;;;;;1753221;82;21019;-67
2022/05/09 08:32:36;;;;;;;2.67;1.65;;;;;;;;;;1753332;82;21027;-68
2022/05/09 08:35:01;;;;;;;1.85;1.65;;;;;;;;;;1753311;81;21550;-68
2022/05/09 08:37:27;;;;;;;2.47;1.90;;;;;;;;;;1724627;82;21036;-68
2022/05/09 08:39:52;;;;;;;4.30;1.85;;;;;;;;;;1728593;82;21032;-68
2022/05/09 08:42:20;;;;;;;2.62;1.82;;;;;;;;;;1737463;82;21570;-68
2022/05/09 08:45:04;;;;;;;3.55;1.85;;;;;;;;;;1726979;82;21571;-68
2022/05/09 08:47:35;;;;;;;5.05;2.20;;;;;;;;;;1753848;81;21028;-69
2022/05/09 08:50:10;;;;;;;2.50;1.90;;;;;;;;;;1748589;82;21547;-68
2022/05/09 08:52:42;;;;;;;3.12;2.15;;;;;;;;;;1730382;82;21330;-68
2022/05/09 08:55:09;;;;;;;6.17;2.87;;;;;;;;;;1715338;83;21080;-67
2022/05/09 08:57:38;;;;;;;3.02;2.15;;;;;;;;;;1742537;82;21491;-68
2022/05/09 09:00:06;;;;;;;3.42;2.00;;;;;;;;;;1716814;83;20994;-69
2022/05/09 09:02:42;;;;;;;3.98;2.10;;;;;;;;;;1726102;80;21043;-69
2022/05/09 09:05:10;;;;;;;2.58;1.82;;;;;;;;;;1737451;81;21511;-68
2022/05/09 09:07:44;;;;;;;5.03;1.90;;;;;;;;;;1711956;83;21077;-68
2022/05/09 09:10:14;;;;;;;5.33;2.00;;;;;;;;;;1716733;83;21598;-69
2022/05/09 09:12:46;;;;;;;4.12;2.00;;;;;;;;;;1716295;83;21086;-68
2022/05/09 09:15:18;;;;;;;4.72;1.77;;;;;;;;;;1733191;82;21060;-68
2022/05/09 09:17:46;;;;;;;2.58;1.80;;;;;;;;;;1734285;82;21036;-69
2022/05/09 09:20:14;;;;;;;2.95;1.50;;;;;;;;;;1734582;82;21107;-68
2022/05/09 09:22:42;;;;;;;2.40;1.70;;;;;;;;;;1733213;83;21068;-69
2022/05/09 09:25:19;;;;;;;2.75;1.80;;;;;;;;;;1728742;82;21586;-69
2022/05/09 09:27:56;;;;;;;3.10;1.80;;;;;;;;;;1718939;82;21164;-68
2022/05/09 09:30:23;;;;;;;2.92;1.70;;;;;;;;;;1717498;82;21051;-68
2022/05/09 09:32:57;;;;;;;2.92;1.95;;;;;;;;;;1740334;82;21555;-69
2022/05/09 09:35:24;;;;;;;;;;;;;;;;;;1721531;82;21438;-67
2022/05/09 09:37:51;;;;;;;4.25;1.92;;;;;;;;;;1718376;83;20144;-67
2022/05/09 09:40:17;;;;;;;3.75;1.80;;;;;;;;;;1678916;85;21061;-69
2022/05/09 09:42:43;;;;;;;4.37;1.75;;;;;;;;;;1716563;83;21018;-69
2022/05/09 09:45:16;;;;;;;2.15;1.65;;;;;;;;;;1716678;83;21045;-68
2022/05/09 09:47:42;;;;;;;2.83;1.80;;;;;;;;;;1700861;83;21058;-68
2022/05/09 09:50:13;;;;;;;4.67;1.82;;;;;;;;;;1716821;83;21014;-68
2022/05/09 09:52:50;;;;;;;2.40;1.70;;;;;;;;;;1716093;83;21076;-68
2022/05/09 09:55:24;;;;;;;2.72;1.70;;;;;;;;;;1723687;82;21037;-69
2022/05/09 09:57:51;;;;;;;1.92;1.45;;;;;;;;;;1734069;82;21410;-68
2022/05/09 10:00:19;;;;;;;1.90;1.50;;;;;;;;;;1737804;82;21522;-68
2022/05/09 10:02:48;;;;;;;2.62;1.65;;;;;;;;;;1710624;83;21016;-69
2022/05/09 10:05:16;;;;;;;2.55;1.60;;;;;;;;;;1723529;82;22234;-68
2022/05/09 10:07:44;;;;;;;2.45;1.62;;;;;;;;;;1687401;84;21632;-68
2022/05/09 10:10:14;;;;;;;2.67;1.70;;;;;;;;;;1664337;84;21054;-68
2022/05/09 10:12:44;;;;;;;2.67;1.57;;;;;;;;;;1663004;86;21141;-68
2022/05/09 10:15:29;;;;;;;2.37;1.60;;;;;;;;;;1662143;85;21048;-67
2022/05/09 10:17:56;;;;;;;1.87;1.55;;;;;;;;;;1663216;85;21073;-68
2022/05/09 10:20:24;;;;;;;2.50;1.60;;;;;;;;;;1686193;85;21053;-68
2022/05/09 10:25:37;;;;;;;2.70;1.42;;;;;;;;;;1687139;85;21118;-67
2022/05/09 10:28:07;;;;;;;2.70;1.37;;;;;;;;;;1663407;85;21061;-68
2022/05/09 10:30:35;;;;;;;3.05;1.57;;;;;;;;;;1688131;84;21057;-67
2022/05/09 10:33:05;;;;;;;2.25;1.55;;;;;;;;;;1664065;84;21644;-68
2022/05/09 10:35:36;;;;;;;1.75;1.30;;;;;;;;;;1662585;86;21071;-67
2022/05/09 10:38:04;;;;;;;1.60;1.50;;;;;;;;;;1662802;85;21087;-68
2022/05/09 10:40:32;;;;;;;5.75;1.67;;;;;;;;;;1693296;84;21539;-69
2022/05/09 10:43:05;;;;;;;3.17;1.55;;;;;;;;;;1687069;85;21045;-69
2022/05/09 10:45:33;;;;;;;2.58;1.50;;;;;;;;;;1686034;85;21042;-69
2022/05/09 10:48:10;;;;;;;3.70;1.67;;;;;;;;;;1680644;84;21026;-69
2022/05/09 10:52:20;;;;;;;3.80;1.55;;;;;;;;;;1819526;79;22811;-68
2022/05/09 10:54:47;;;;;;;1.90;1.50;;;;;;;;;;1792956;80;20998;-67
2022/05/09 10:57:32;;;;;;;1.60;1.47;;;;;;;;;;1792909;80;21071;-66
2022/05/09 11:00:00;;;;;;;1.85;1.50;;;;;;;;;;1767281;80;21548;-65
2022/05/09 11:02:28;;;;;;;1.50;1.35;;;;;;;;;;1761381;81;21577;-65
2022/05/09 11:04:55;;;;;;;4.37;1.67;;;;;;;;;;1731891;81;21049;-65
2022/05/09 11:07:29;;;;;;;2.20;1.35;;;;;;;;;;1762431;81;21078;-65
2022/05/09 11:10:06;;;;;;;2.45;1.47;;;;;;;;;;1750074;81;21509;-67
2022/05/09 11:12:46;;;;;;;3.47;1.60;;;;;;;;;;1734645;81;21465;-66
2022/05/09 11:15:17;;;;;;;2.17;1.37;;;;;;;;;;1761952;81;20992;-67
2022/05/09 11:17:45;;;;;;;1.95;1.60;;;;;;;;;;1756958;81;21017;-66
2022/05/09 11:20:30;;;;;;;2.50;1.40;;;;;;;;;;1737189;82;21073;-67
2022/05/09 11:23:11;;;;;;;2.15;1.50;;;;;;;;;;1737326;82;21050;-68
2022/05/09 11:25:44;;;;;;;3.35;1.67;;;;;;;;;;1738500;81;21036;-68
2022/05/09 11:28:29;;;;;;;2.40;1.62;;;;;;;;;;1753919;81;21026;-67
2022/05/09 11:30:57;;;;;;;2.80;1.50;;;;;;;;;;1754014;81;21041;-68
2022/05/09 11:33:42;;;;;;;1.98;1.40;;;;;;;;;;1725729;81;21487;-68
2022/05/09 11:36:25;;;;;;;1.82;1.60;;;;;;;;;;1753225;81;21016;-67
2022/05/09 11:38:56;;;;;;;1.87;1.40;;;;;;;;;;1747699;81;21032;-67
2022/05/09 11:41:30;;;;;;;1.55;1.25;;;;;;;;;;1748935;81;21105;-67
2022/05/09 11:43:58;;;;;;;2.80;1.57;;;;;;;;;;1743295;81;21045;-68
2022/05/09 11:46:26;;;;;;;3.60;1.30;;;;;;;;;;1722132;83;21152;-67
2022/05/09 11:49:03;;;;;;;3.27;1.40;;;;;;;;;;1760253;81;21024;-68
2022/05/09 11:51:37;;;;;;;2.27;1.40;;;;;;;;;;1736325;81;21005;-67
2022/05/09 11:54:05;;;;;;;1.82;1.35;;;;;;;;;;1741222;82;21059;-69
2022/05/09 11:56:31;;;;;;;1.40;1.30;;;;;;;;;;1755900;82;21530;-68
2022/05/09 11:58:57;;;;;;;2.87;1.60;;;;;;;;;;1756723;82;21023;-68
2022/05/09 12:01:41;;;;;;;2.22;1.50;;;;;;;;;;1756501;82;21043;-68
2022/05/09 12:04:07;;;;;;;2.42;1.50;;;;;;;;;;1756107;82;21112;-69
2022/05/09 12:06:36;;;;;;;2.37;1.50;;;;;;;;;;1726534;82;21075;-68
2022/05/09 12:09:08;;;;;;;1.57;1.47;;;;;;;;;;1755619;82;21036;-68
2022/05/09 12:11:46;;;;;;;2.12;1.80;;;;;;;;;;1755252;81;21005;-68
2022/05/09 12:14:12;;;;;;;2.70;1.62;;;;;;;;;;1749184;81;20976;-69
2022/05/09 12:16:40;;;;;;;3.80;1.50;;;;;;;;;;1716413;82;21048;-68
2022/05/09 12:19:20;;;;;;;2.70;1.60;;;;;;;;;;1754975;82;21040;-69
2022/05/09 12:21:48;;;;;;;2.87;1.77;;;;;;;;;;1756022;82;21025;-67
2022/05/09 12:24:19;;;;;;;2.05;1.60;;;;;;;;;;1744945;81;21511;-68
2022/05/09 12:26:46;;;;;;;4.33;2.17;;;;;;;;;;1741566;81;21122;-67
2022/05/09 12:29:15;;;;;;;3.10;1.90;;;;;;;;;;1755993;81;21004;-69
2022/05/09 12:31:43;;;;;;;3.65;2.00;;;;;;;;;;1756612;81;21008;-69
2022/05/09 12:34:14;;;;;;;2.22;1.70;;;;;;;;;;1754136;81;21017;-68
2022/05/09 12:36:40;;;;;;;2.92;2.22;;;;;;;;;;1757449;81;21004;-68
2022/05/09 12:39:10;;;;;;;4.25;1.90;;;;;;;;;;1736351;82;20994;-67
2022/05/09 12:41:48;;;;;;;1.95;1.52;;;;;;;;;;1726003;83;21009;-67
2022/05/09 12:44:17;;;;;;;3.40;1.77;;;;;;;;;;1725901;83;21501;-67
2022/05/09 12:46:50;;;;;;;1.80;1.40;;;;;;;;;;1723983;82;21017;-68
2022/05/09 12:49:17;;;;;;;3.80;1.67;;;;;;;;;;1745661;82;21595;-68
2022/05/09 12:51:45;;;;;;;2.85;1.60;;;;;;;;;;1759242;81;21380;-68
2022/05/09 12:54:11;;;;;;;3.67;1.40;;;;;;;;;;1756766;81;21012;-67
2022/05/09 12:56:39;;;;;;;1.82;1.45;;;;;;;;;;1761361;81;21008;-68
2022/05/09 12:59:09;;;;;;;1.27;1.17;;;;;;;;;;1761495;81;21043;-67
2022/05/09 13:01:36;;;;;;;2.08;1.37;;;;;;;;;;1760110;81;20964;-68
2022/05/09 13:04:03;;;;;;;2.52;1.95;;;;;;;;;;1741371;81;21036;-68
2022/05/09 13:06:40;;;;;;;2.00;1.60;;;;;;;;;;1756948;81;21043;-68
2022/05/09 13:09:12;;;;;;;3.33;1.80;;;;;;;;;;1761098;81;21532;-68
2022/05/09 13:11:38;;;;;;;1.87;1.52;;;;;;;;;;1746695;81;21018;-67
2022/05/09 13:14:11;;;;;;;3.22;1.32;;;;;;;;;;1725726;83;21020;-67
2022/05/09 13:16:40;;;;;;;2.47;1.62;;;;;;;;;;1726519;81;21586;-66
2022/05/09 13:19:14;;;;;;;4.95;2.60;;;;;;;;;;1760274;81;21068;-67
2022/05/09 13:21:41;;;;;;;1.62;1.50;;;;;;;;;;1752535;81;21134;-67
2022/05/09 13:24:08;;;;;;;2.20;1.60;;;;;;;;;;1750564;81;21075;-67
2022/05/09 13:26:36;;;;;;;3.15;1.50;;;;;;;;;;1752650;81;21583;-68
2022/05/09 13:29:09;;;;;;;3.20;1.70;;;;;;;;;;1733244;81;21112;-69
2022/05/09 13:31:42;;;;;;;3.00;1.80;;;;;;;;;;1749923;81;21516;-68
2022/05/09 13:34:19;;;;;;;3.10;1.60;;;;;;;;;;1725691;83;21032;-68
2022/05/09 13:36:45;;;;;;;4.03;1.75;;;;;;;;;;1735518;81;21028;-67
2022/05/09 13:39:16;;;;;;;6.65;2.08;;;;;;;;;;1756966;81;21009;-68
2022/05/09 13:41:42;;;;;;;1.92;1.40;;;;;;;;;;1730986;81;21033;-68
2022/05/09 13:44:08;;;;;;;2.55;1.50;;;;;;;;;;1718705;82;21029;-69
2022/05/09 13:46:35;;;;;;;2.75;1.90;;;;;;;;;;1751084;81;21041;-68
2022/05/09 13:49:03;;;;;;;2.85;1.80;;;;;;;;;;1761219;81;21592;-68
2022/05/09 13:51:31;;;;;;;2.58;1.77;;;;;;;;;;1754529;81;21064;-67
2022/05/09 13:53:58;;;;;;;4.92;2.35;;;;;;;;;;1748067;82;21001;-67
2022/05/09 13:56:26;;;;;;;4.33;1.67;;;;;;;;;;1742715;82;21013;-67
2022/05/09 13:58:55;;;;;;;2.30;1.65;;;;;;;;;;1737617;82;21040;-67
2022/05/09 14:01:21;;;;;;;3.70;2.12;;;;;;;;;;1719987;82;21036;-68
2022/05/09 14:03:48;;;;;;;2.67;1.70;;;;;;;;;;1714359;82;21595;-68
2022/05/09 14:06:18;;;;;;;2.62;1.85;;;;;;;;;;1731101;82;21134;-69
2022/05/09 14:08:45;;;;;;;2.12;1.50;;;;;;;;;;1731512;82;21099;-69
2022/05/09 14:11:11;;;;;;;2.77;1.70;;;;;;;;;;1730734;82;21056;-68
2022/05/09 14:13:46;;;;;;;4.65;1.85;;;;;;;;;;1747795;82;21099;-67
2022/05/09 14:16:34;;;;;;;2.35;1.60;;;;;;;;;;1712825;82;21076;-69
2022/05/09 14:19:02;;;;;;;3.40;2.08;;;;;;;;;;1710106;84;21532;-68
2022/05/09 14:21:28;;;;;;;2.47;1.80;;;;;;;;;;1709817;84;21513;-68
2022/05/09 14:23:58;;;;;;;3.22;1.80;;;;;;;;;;1710194;83;21327;-68
2022/05/09 14:31:58;;;;;;;2.27;1.57;;;;;;;;;;1748010;82;21040;-68
2022/05/09 14:34:25;;;;;;;5.30;1.90;;;;;;;;;;1747420;82;21488;-69
2022/05/09 14:37:08;;;;;;;2.40;1.85;;;;;;;;;;1736756;82;21104;-69
2022/05/09 14:39:36;;;;;;;1.53;1.40;;;;;;;;;;1728497;82;21057;-68
2022/05/09 14:42:10;;;;;;;3.62;1.70;;;;;;;;;;1747720;82;21095;-66
2022/05/09 14:44:38;;;;;;;3.75;1.67;;;;;;;;;;1716522;82;21473;-68
2022/05/09 14:47:09;;;;;;;2.77;1.75;;;;;;;;;;1720102;82;20984;-68
2022/05/09 14:49:40;;;;;;;2.77;1.95;;;;;;;;;;1730889;82;21049;-67
2022/05/09 14:52:08;;;;;;;2.83;1.60;;;;;;;;;;1740839;82;21017;-67
2022/05/09 14:54:41;;;;;;;2.10;1.62;;;;;;;;;;1738107;82;21056;-68
2022/05/09 14:57:25;;;;;;;3.47;1.72;;;;;;;;;;1746636;82;21532;-67
2022/05/09 14:59:51;;;;;;;2.98;1.85;;;;;;;;;;1729916;82;21060;-67
2022/05/09 15:02:30;;;;;;;2.70;1.72;;;;;;;;;;1720846;82;21052;-68
2022/05/09 15:04:57;;;;;;;2.05;1.75;;;;;;;;;;1736871;82;21066;-67
2022/05/09 15:07:25;;;;;;;3.65;1.80;;;;;;;;;;1747413;82;21604;-67
2022/05/09 15:09:51;;;;;;;5.78;2.00;;;;;;;;;;1718691;82;21021;-67
2022/05/09 15:12:19;;;;;;;2.80;1.80;;;;;;;;;;1728805;82;20958;-68
2022/05/09 15:14:46;;;;;;;2.85;1.70;;;;;;;;;;1719724;82;21001;-68